Quivira, Kansas
Current Conditions -  °F | °C
As of 5:53 PM on Sunday 21 Dec 2014 (Local Time) from KOJC Reporting Station
Haze Haze  
Wind Chill: 36°   Ceiling: 800
Heat Index: 43°   Visibility: 6mi
Dew Point: 42°   Wind: 14mph
Humidity: 97%   Direction: 160°SSE
Pressure: 29.81"   Gusts: NA
Location:  39.0067°N, 94.7872°W
Report Text: KOJC 212353Z 16012KT 6SM BR BKN008 OVC013 06/06 A2981 RMK AO2 CIG 005V011 SLP099 T00610056 10072 20056 58006
Loading
Personal Weather Stations






























Interactive Weather Map New forecast layout! Learn more

10-Day Weather Forecast

Advertisements
Track Severe Weather on mobile